x

La Mancha Beach, Mexico (lmbv4) Weather Station

3:00pm - Fri 21st Jul 2017 All times are CDT. -5 hours from GMT.

  • Wind
    8mph, 9mph gusts
  • Air Temp 86°f
  • Sea Pressure 1015.5mb
  • La Mancha Beach, Mexico
  • La Mancha Beach, Mexico

More Historic Weather Station data

Upgrade to MSW Pro to gain access to the past 30 days of data for over 8000 Wavebouys and Weather Stations around the globe.

Join Pro

Comparision Forecast

View Surf forecast
   
Fri 07/21 3:00pm 8 9 mph 1015.5mb 86f
2:00pm 8 9 mph 1015.8mb 86f
1:00pm 6 6 mph 1016.1mb 87f
12:00pm 8 9 mph 1016.6mb 88f
11:00am 7 8 mph 1016.8mb 89f
10:00am 3 5 mph 1016.7mb 89f
9:00am  -  1 mph 1016.9mb 90f
8:00am 5 5 mph 1016.4mb 81f
7:00am 3 5 mph 1015.9mb 75f
6:00am  -  0 mph 1015.1mb 75f
5:00am 3 5 mph 1015.1mb 76f
4:00am 3 3 mph 1015.1mb 76f
3:00am 3 5 mph 1015.5mb 76f
2:00am 3 3 mph 1016.4mb 76f
1:00am 3 3 mph 1017.3mb 77f
12:00am 3 5 mph 1017.9mb 78f
Thu 07/20 11:00pm 2 2 mph 1017.8mb 78f
10:00pm 3 3 mph 1017.2mb 79f
9:00pm 2 3 mph 1016.9mb 80f
8:00pm  -  1 mph 1016mb 82f
7:00pm 2 2 mph 1015.9mb 84f
6:00pm 3 5 mph 1016mb 85f
5:00pm 7 9 mph 1016.2mb 87f
4:00pm 5 8 mph 1016.9mb 86f
3:00pm 7 8 mph 1017.4mb 87f
2:00pm 5 6 mph 1018mb 86f
1:00pm 8 9 mph 1018.8mb 83f
12:00pm 8 10 mph 1019.3mb 85f
11:00am 5 7 mph 1019.4mb 88f
10:00am 5 6 mph 1019.1mb 89f
9:00am  -  1 mph 1019mb 80f
8:00am 1 2 mph 1018.5mb 79f
7:00am 2 3 mph 1017.5mb 77f
6:00am 5 6 mph 1017.2mb 76f
5:00am 3 5 mph 1017.1mb 76f
4:00am 3 5 mph 1016.6mb 75f
3:00am 3 5 mph 1016.9mb 76f
2:00am 2 3 mph 1018.1mb 77f
1:00am 11 13 mph 1019.2mb 77f
12:00am 3 5 mph 1019.1mb 78f
Wed 07/19 11:00pm 3 5 mph 1019mb 78f
10:00pm 5 6 mph 1018.4mb 79f
9:00pm 2 3 mph 1017.8mb 81f
8:00pm 6 7 mph 1017mb 84f
7:00pm 7 7 mph 1016.1mb 87f
6:00pm 6 7 mph 1015.9mb 89f
5:00pm 5 5 mph 1016.7mb 89f
4:00pm 8 9 mph 1017.2mb 88f
3:00pm 5 6 mph 1017.7mb 88f
2:00pm 6 8 mph 1018mb 87f
1:00pm 6 8 mph 1017.9mb 86f
12:00pm 5 7 mph 1017.8mb 87f
11:00am  -  1 mph 1017.5mb 87f
10:00am 2 3 mph 1017.5mb 80f
9:00am 2 5 mph 1017.2mb 77f
8:00am 6 8 mph 1017.7mb 74f
7:00am 6 9 mph 1018.2mb 74f
6:00am 13 21 mph 1017.8mb 73f
5:00am 5 6 mph 1015.7mb 78f
4:00am 3 3 mph 1015.5mb 76f
3:00am 5 6 mph 1015.5mb 75f
2:00am 5 7 mph 1016.1mb 74f
1:00am 3 6 mph 1016.8mb 74f
12:00am 5 6 mph 1017.8mb 75f
Tue 07/18 11:00pm 3 3 mph 1017.6mb 75f
10:00pm 2 5 mph 1016.5mb 78f
9:00pm 6 7 mph 1015.9mb 78f
8:00pm 6 7 mph 1015.4mb 81f
7:00pm  -  1 mph 1014.3mb 84f
6:00pm 5 6 mph 1013.8mb 84f
5:00pm 9 10 mph 1013.5mb 87f
4:00pm 9 11 mph 1013.9mb 85f
3:00pm 10 11 mph 1014.2mb 86f
2:00pm 16 18 mph 1014.2mb 85f
1:00pm 17 20 mph 1014mb 86f
12:00pm 9 10 mph 1014mb 90f
11:00am 2 5 mph 1014.2mb 90f
10:00am 2 5 mph 1015.4mb 85f
9:00am  -  3 mph 1015.8mb 80f
8:00am 6 8 mph 1015.4mb 77f
7:00am 7 9 mph 1014.2mb 77f
6:00am  -  1 mph 1012.7mb 74f
5:00am 2 3 mph 1013.3mb 74f
4:00am 5 9 mph 1013.9mb 75f
3:00am 2 3 mph 1013.1mb 75f
2:00am 3 5 mph 1014.5mb 74f
1:00am 3 3 mph 1014.2mb 80f
12:00am 2 2 mph 1014.8mb 81f
Mon 07/17 11:00pm 5 5 mph 1014.4mb 80f
10:00pm 1 2 mph 1013.6mb 81f